sensor_id;sensor_type;location;lat;lon;timestamp;temperature;humidity
26081;DHT22;13991;51.174;4.438;2022-10-16T08:35:40;16.80;99.90
26081;DHT22;13991;51.174;4.438;2022-10-16T08:38:06;16.80;99.90
26081;DHT22;13991;51.174;4.438;2022-10-16T08:40:35;16.90;99.90
26081;DHT22;13991;51.174;4.438;2022-10-16T08:48:52;17.20;99.90
26081;DHT22;13991;51.174;4.438;2022-10-16T08:51:27;17.30;99.90
26081;DHT22;13991;51.174;4.438;2022-10-16T09:51:05;18.70;99.90
26081;DHT22;13991;51.174;4.438;2022-10-16T09:54:01;18.90;99.90
26081;DHT22;13991;51.174;4.438;2022-10-16T09:56:33;18.90;99.90
26081;DHT22;13991;51.174;4.438;2022-10-16T09:59:08;19.00;99.90
26081;DHT22;13991;51.174;4.438;2022-10-16T10:01:43;19.10;99.90
26081;DHT22;13991;51.174;4.438;2022-10-16T10:04:10;18.70;99.90
26081;DHT22;13991;51.174;4.438;2022-10-16T10:06:48;18.80;99.90
26081;DHT22;13991;51.174;4.438;2022-10-16T10:09:20;19.00;99.90
26081;DHT22;13991;51.174;4.438;2022-10-16T10:11:52;19.10;99.90
26081;DHT22;13991;51.174;4.438;2022-10-16T10:16:52;19.20;99.90
26081;DHT22;13991;51.174;4.438;2022-10-16T10:19:23;19.10;99.90
26081;DHT22;13991;51.174;4.438;2022-10-16T10:21:50;19.10;99.90
26081;DHT22;13991;51.174;4.438;2022-10-16T10:24:18;19.30;99.90
26081;DHT22;13991;51.174;4.438;2022-10-16T10:27:09;19.20;99.90
26081;DHT22;13991;51.174;4.438;2022-10-16T10:29:41;19.20;99.90
26081;DHT22;13991;51.174;4.438;2022-10-16T10:35:07;19.30;99.90
26081;DHT22;13991;51.174;4.438;2022-10-16T10:45:42;19.30;99.90
26081;DHT22;13991;51.174;4.438;2022-10-16T10:50:57;19.50;99.90
26081;DHT22;13991;51.174;4.438;2022-10-16T10:56:05;20.00;99.90
26081;DHT22;13991;51.174;4.438;2022-10-16T11:01:54;20.30;99.90
26081;DHT22;13991;51.174;4.438;2022-10-16T11:07:20;20.60;99.90
26081;DHT22;13991;51.174;4.438;2022-10-16T11:09:51;20.50;99.90
26081;DHT22;13991;51.174;4.438;2022-10-16T11:12:21;20.60;99.90
26081;DHT22;13991;51.174;4.438;2022-10-16T11:15:34;20.90;99.90
26081;DHT22;13991;51.174;4.438;2022-10-16T11:17:59;20.80;99.90
26081;DHT22;13991;51.174;4.438;2022-10-16T11:20:24;20.90;99.90
26081;DHT22;13991;51.174;4.438;2022-10-16T11:22:56;21.10;99.90
26081;DHT22;13991;51.174;4.438;2022-10-16T11:25:32;21.30;99.90
26081;DHT22;13991;51.174;4.438;2022-10-16T11:28:16;21.50;99.90
26081;DHT22;13991;51.174;4.438;2022-10-16T11:30:57;21.70;99.90
26081;DHT22;13991;51.174;4.438;2022-10-16T11:34:06;21.70;99.90
26081;DHT22;13991;51.174;4.438;2022-10-16T11:36:38;21.70;99.90
26081;DHT22;13991;51.174;4.438;2022-10-16T11:39:30;21.70;99.90
26081;DHT22;13991;51.174;4.438;2022-10-16T11:42:29;21.80;99.90
26081;DHT22;13991;51.174;4.438;2022-10-16T11:44:59;21.70;99.90
26081;DHT22;13991;51.174;4.438;2022-10-16T11:50:36;21.50;99.90
26081;DHT22;13991;51.174;4.438;2022-10-16T11:55:51;21.70;99.90
26081;DHT22;13991;51.174;4.438;2022-10-16T11:58:30;21.80;99.90
26081;DHT22;13991;51.174;4.438;2022-10-16T12:01:15;22.00;99.90
26081;DHT22;13991;51.174;4.438;2022-10-16T12:06:34;22.30;99.90
26081;DHT22;13991;51.174;4.438;2022-10-16T12:09:01;22.50;99.90
26081;DHT22;13991;51.174;4.438;2022-10-16T12:11:36;22.60;99.90
26081;DHT22;13991;51.174;4.438;2022-10-16T12:16:39;22.30;99.90
26081;DHT22;13991;51.174;4.438;2022-10-16T12:19:17;22.10;99.90
26081;DHT22;13991;51.174;4.438;2022-10-16T12:21:44;21.90;99.90
26081;DHT22;13991;51.174;4.438;2022-10-16T12:24:30;21.90;99.90
26081;DHT22;13991;51.174;4.438;2022-10-16T12:26:57;21.90;99.90
26081;DHT22;13991;51.174;4.438;2022-10-16T12:29:39;21.80;99.90
26081;DHT22;13991;51.174;4.438;2022-10-16T12:34:51;21.80;99.90
26081;DHT22;13991;51.174;4.438;2022-10-16T12:37:29;21.60;99.90
26081;DHT22;13991;51.174;4.438;2022-10-16T12:39:58;21.60;99.90
26081;DHT22;13991;51.174;4.438;2022-10-16T12:44:53;21.50;99.90
26081;DHT22;13991;51.174;4.438;2022-10-16T12:49:58;21.60;99.90
26081;DHT22;13991;51.174;4.438;2022-10-16T12:52:42;21.60;99.90
26081;DHT22;13991;51.174;4.438;2022-10-16T12:55:17;21.60;99.90
26081;DHT22;13991;51.174;4.438;2022-10-16T12:58:19;21.60;99.90
26081;DHT22;13991;51.174;4.438;2022-10-16T13:12:33;21.70;99.90
26081;DHT22;13991;51.174;4.438;2022-10-16T13:15:16;21.60;99.90
26081;DHT22;13991;51.174;4.438;2022-10-16T13:18:05;21.50;99.90
26081;DHT22;13991;51.174;4.438;2022-10-16T13:23:17;21.60;99.90
26081;DHT22;13991;51.174;4.438;2022-10-16T13:26:03;21.70;99.90
26081;DHT22;13991;51.174;4.438;2022-10-16T13:28:33;21.70;99.90
26081;DHT22;13991;51.174;4.438;2022-10-16T13:31:01;21.70;99.90
26081;DHT22;13991;51.174;4.438;2022-10-16T13:33:34;21.80;99.90
26081;DHT22;13991;51.174;4.438;2022-10-16T13:36:01;21.60;99.90
26081;DHT22;13991;51.174;4.438;2022-10-16T13:38:35;21.60;99.90
26081;DHT22;13991;51.174;4.438;2022-10-16T13:41:03;21.40;99.90
26081;DHT22;13991;51.174;4.438;2022-10-16T13:43:36;21.50;99.90
26081;DHT22;13991;51.174;4.438;2022-10-16T13:46:12;21.50;99.90
26081;DHT22;13991;51.174;4.438;2022-10-16T13:48:38;21.40;99.90
26081;DHT22;13991;51.174;4.438;2022-10-16T13:51:13;21.40;99.90
26081;DHT22;13991;51.174;4.438;2022-10-16T13:53:39;21.40;99.90
26081;DHT22;13991;51.174;4.438;2022-10-16T13:56:15;21.40;99.90
26081;DHT22;13991;51.174;4.438;2022-10-16T13:58:42;21.40;99.90
26081;DHT22;13991;51.174;4.438;2022-10-16T14:01:20;21.40;99.90
26081;DHT22;13991;51.174;4.438;2022-10-16T14:03:48;21.40;99.90
26081;DHT22;13991;51.174;4.438;2022-10-16T14:06:17;21.30;99.90
26081;DHT22;13991;51.174;4.438;2022-10-16T14:08:55;21.40;99.90
26081;DHT22;13991;51.174;4.438;2022-10-16T14:11:23;21.40;99.90
26081;DHT22;13991;51.174;4.438;2022-10-16T14:13:50;21.50;99.90
26081;DHT22;13991;51.174;4.438;2022-10-16T14:16:27;21.50;99.90
26081;DHT22;13991;51.174;4.438;2022-10-16T14:19:02;21.60;99.90
26081;DHT22;13991;51.174;4.438;2022-10-16T14:21:28;21.40;99.90
26081;DHT22;13991;51.174;4.438;2022-10-16T14:23:54;21.30;99.90
26081;DHT22;13991;51.174;4.438;2022-10-16T14:26:24;21.10;99.90
26081;DHT22;13991;51.174;4.438;2022-10-16T14:29:08;21.20;99.90
26081;DHT22;13991;51.174;4.438;2022-10-16T14:31:35;21.10;99.90
26081;DHT22;13991;51.174;4.438;2022-10-16T14:34:02;21.10;99.90
26081;DHT22;13991;51.174;4.438;2022-10-16T14:36:29;21.20;99.90
26081;DHT22;13991;51.174;4.438;2022-10-16T14:39:04;21.20;99.90
26081;DHT22;13991;51.174;4.438;2022-10-16T14:41:45;21.30;99.90
26081;DHT22;13991;51.174;4.438;2022-10-16T14:44:12;21.50;99.90
26081;DHT22;13991;51.174;4.438;2022-10-16T14:46:40;21.30;99.90
26081;DHT22;13991;51.174;4.438;2022-10-16T14:51:36;21.20;99.90
26081;DHT22;13991;51.174;4.438;2022-10-16T14:54:02;21.20;99.90
26081;DHT22;13991;51.174;4.438;2022-10-16T14:59:35;21.00;99.90
26081;DHT22;13991;51.174;4.438;2022-10-16T15:02:16;20.80;99.90
26081;DHT22;13991;51.174;4.438;2022-10-16T15:04:42;20.60;99.90
26081;DHT22;13991;51.174;4.438;2022-10-16T15:07:07;20.60;99.90
26081;DHT22;13991;51.174;4.438;2022-10-16T15:09:35;20.60;99.90
26081;DHT22;13991;51.174;4.438;2022-10-16T15:12:01;20.50;99.90
26081;DHT22;13991;51.174;4.438;2022-10-16T15:14:27;20.50;99.90
26081;DHT22;13991;51.174;4.438;2022-10-16T15:16:52;20.50;99.90
26081;DHT22;13991;51.174;4.438;2022-10-16T15:19:18;20.40;99.90
26081;DHT22;13991;51.174;4.438;2022-10-16T15:21:43;20.30;99.90
26081;DHT22;13991;51.174;4.438;2022-10-16T15:24:12;20.20;99.90
26081;DHT22;13991;51.174;4.438;2022-10-16T15:26:38;20.10;99.90
26081;DHT22;13991;51.174;4.438;2022-10-16T15:29:04;20.10;99.90
26081;DHT22;13991;51.174;4.438;2022-10-16T15:31:30;20.00;99.90
26081;DHT22;13991;51.174;4.438;2022-10-16T15:33:56;20.00;99.90
26081;DHT22;13991;51.174;4.438;2022-10-16T15:36:33;19.90;99.90
26081;DHT22;13991;51.174;4.438;2022-10-16T15:39:05;19.90;99.90
26081;DHT22;13991;51.174;4.438;2022-10-16T15:41:34;19.80;99.90
26081;DHT22;13991;51.174;4.438;2022-10-16T15:43:59;19.90;99.90
26081;DHT22;13991;51.174;4.438;2022-10-16T15:46:25;19.80;99.90
26081;DHT22;13991;51.174;4.438;2022-10-16T15:48:56;19.80;99.90
26081;DHT22;13991;51.174;4.438;2022-10-16T15:51:22;19.80;99.90
26081;DHT22;13991;51.174;4.438;2022-10-16T15:53:48;19.70;99.90
26081;DHT22;13991;51.174;4.438;2022-10-16T15:56:16;19.70;99.90
26081;DHT22;13991;51.174;4.438;2022-10-16T15:58:43;19.70;99.90
26081;DHT22;13991;51.174;4.438;2022-10-16T16:01:09;19.60;99.90
26081;DHT22;13991;51.174;4.438;2022-10-16T16:03:37;19.70;99.90
26081;DHT22;13991;51.174;4.438;2022-10-16T16:06:08;19.60;99.90
26081;DHT22;13991;51.174;4.438;2022-10-16T16:08:34;19.60;99.90
26081;DHT22;13991;51.174;4.438;2022-10-16T16:11:02;19.50;99.90
26081;DHT22;13991;51.174;4.438;2022-10-16T16:13:28;19.40;99.90
26081;DHT22;13991;51.174;4.438;2022-10-16T16:15:54;19.30;99.90
26081;DHT22;13991;51.174;4.438;2022-10-16T16:18:19;19.30;99.90
26081;DHT22;13991;51.174;4.438;2022-10-16T16:20:45;19.30;99.90
26081;DHT22;13991;51.174;4.438;2022-10-16T16:23:12;19.30;99.90
26081;DHT22;13991;51.174;4.438;2022-10-16T16:25:38;19.30;99.90
26081;DHT22;13991;51.174;4.438;2022-10-16T16:28:04;19.20;99.90
26081;DHT22;13991;51.174;4.438;2022-10-16T16:30:32;19.10;99.90
26081;DHT22;13991;51.174;4.438;2022-10-16T16:32:58;19.10;99.90
26081;DHT22;13991;51.174;4.438;2022-10-16T16:35:23;19.00;99.90
26081;DHT22;13991;51.174;4.438;2022-10-16T16:37:49;19.00;99.90
26081;DHT22;13991;51.174;4.438;2022-10-16T16:40:15;19.00;99.90
26081;DHT22;13991;51.174;4.438;2022-10-16T16:42:40;18.80;99.90
26081;DHT22;13991;51.174;4.438;2022-10-16T16:45:06;18.90;99.90
26081;DHT22;13991;51.174;4.438;2022-10-16T16:47:32;18.80;99.90
26081;DHT22;13991;51.174;4.438;2022-10-16T16:49:58;18.70;99.90
26081;DHT22;13991;51.174;4.438;2022-10-16T16:52:24;18.80;99.90
26081;DHT22;13991;51.174;4.438;2022-10-16T16:54:50;18.90;99.90
26081;DHT22;13991;51.174;4.438;2022-10-16T16:57:19;18.90;99.90
26081;DHT22;13991;51.174;4.438;2022-10-16T16:59:45;18.90;99.90
26081;DHT22;13991;51.174;4.438;2022-10-16T17:02:11;18.80;99.90
26081;DHT22;13991;51.174;4.438;2022-10-16T17:04:36;18.70;99.90
26081;DHT22;13991;51.174;4.438;2022-10-16T17:07:02;18.70;99.90
26081;DHT22;13991;51.174;4.438;2022-10-16T17:09:28;18.70;99.90
26081;DHT22;13991;51.174;4.438;2022-10-16T17:11:54;18.70;99.90
26081;DHT22;13991;51.174;4.438;2022-10-16T17:14:19;18.70;99.90
26081;DHT22;13991;51.174;4.438;2022-10-16T17:16:46;18.70;99.90
26081;DHT22;13991;51.174;4.438;2022-10-16T17:19:18;18.60;99.90
26081;DHT22;13991;51.174;4.438;2022-10-16T17:21:44;18.60;99.90
26081;DHT22;13991;51.174;4.438;2022-10-16T17:24:10;18.60;99.90
26081;DHT22;13991;51.174;4.438;2022-10-16T17:26:36;18.60;99.90
26081;DHT22;13991;51.174;4.438;2022-10-16T17:29:03;18.60;99.90
26081;DHT22;13991;51.174;4.438;2022-10-16T17:31:34;18.60;99.90
26081;DHT22;13991;51.174;4.438;2022-10-16T17:34:03;18.60;99.90
26081;DHT22;13991;51.174;4.438;2022-10-16T17:36:31;18.70;99.90
26081;DHT22;13991;51.174;4.438;2022-10-16T17:39:10;18.60;99.90
26081;DHT22;13991;51.174;4.438;2022-10-16T17:41:36;18.50;99.90
26081;DHT22;13991;51.174;4.438;2022-10-16T17:44:03;18.50;99.90
26081;DHT22;13991;51.174;4.438;2022-10-16T17:46:28;18.50;99.90
26081;DHT22;13991;51.174;4.438;2022-10-16T17:48:54;18.40;99.90
26081;DHT22;13991;51.174;4.438;2022-10-16T17:51:26;18.40;99.90
26081;DHT22;13991;51.174;4.438;2022-10-16T17:53:55;18.30;99.90
26081;DHT22;13991;51.174;4.438;2022-10-16T17:56:22;18.30;99.90
26081;DHT22;13991;51.174;4.438;2022-10-16T17:58:53;18.20;99.90
26081;DHT22;13991;51.174;4.438;2022-10-16T18:01:28;18.10;99.90
26081;DHT22;13991;51.174;4.438;2022-10-16T18:03:59;18.00;99.90
26081;DHT22;13991;51.174;4.438;2022-10-16T18:06:26;18.00;99.90
26081;DHT22;13991;51.174;4.438;2022-10-16T18:08:53;17.90;99.90
26081;DHT22;13991;51.174;4.438;2022-10-16T18:11:21;17.80;99.90
26081;DHT22;13991;51.174;4.438;2022-10-16T18:13:47;17.70;99.90
26081;DHT22;13991;51.174;4.438;2022-10-16T18:16:13;17.70;99.90
26081;DHT22;13991;51.174;4.438;2022-10-16T18:18:41;17.70;99.90
26081;DHT22;13991;51.174;4.438;2022-10-16T18:21:10;17.70;99.90
26081;DHT22;13991;51.174;4.438;2022-10-16T18:23:37;17.60;99.90
26081;DHT22;13991;51.174;4.438;2022-10-16T18:26:04;17.60;99.90
26081;DHT22;13991;51.174;4.438;2022-10-16T18:28:31;17.70;99.90
26081;DHT22;13991;51.174;4.438;2022-10-16T18:31:01;17.70;99.90
26081;DHT22;13991;51.174;4.438;2022-10-16T18:33:27;17.60;99.90
26081;DHT22;13991;51.174;4.438;2022-10-16T18:35:56;17.60;99.90
26081;DHT22;13991;51.174;4.438;2022-10-16T18:38:24;17.60;99.90
26081;DHT22;13991;51.174;4.438;2022-10-16T18:40:50;17.60;99.90
26081;DHT22;13991;51.174;4.438;2022-10-16T18:43:15;17.60;99.90
26081;DHT22;13991;51.174;4.438;2022-10-16T18:45:43;17.60;99.90
26081;DHT22;13991;51.174;4.438;2022-10-16T18:48:08;17.60;99.90
26081;DHT22;13991;51.174;4.438;2022-10-16T18:50:34;17.60;99.90
26081;DHT22;13991;51.174;4.438;2022-10-16T18:53:00;17.30;99.90
26081;DHT22;13991;51.174;4.438;2022-10-16T18:55:26;17.30;99.90
26081;DHT22;13991;51.174;4.438;2022-10-16T18:57:54;17.40;99.90
26081;DHT22;13991;51.174;4.438;2022-10-16T19:00:20;17.40;99.90
26081;DHT22;13991;51.174;4.438;2022-10-16T19:02:45;17.40;99.90
26081;DHT22;13991;51.174;4.438;2022-10-16T19:05:11;17.30;99.90
26081;DHT22;13991;51.174;4.438;2022-10-16T19:07:36;17.40;99.90
26081;DHT22;13991;51.174;4.438;2022-10-16T19:10:02;17.40;99.90
26081;DHT22;13991;51.174;4.438;2022-10-16T19:12:28;17.40;99.90
26081;DHT22;13991;51.174;4.438;2022-10-16T19:14:54;17.40;99.90
26081;DHT22;13991;51.174;4.438;2022-10-16T19:17:20;17.20;99.90
26081;DHT22;13991;51.174;4.438;2022-10-16T19:19:45;17.40;99.90
26081;DHT22;13991;51.174;4.438;2022-10-16T19:22:11;17.30;99.90
26081;DHT22;13991;51.174;4.438;2022-10-16T19:24:43;17.40;99.90
26081;DHT22;13991;51.174;4.438;2022-10-16T19:27:08;17.30;99.90
26081;DHT22;13991;51.174;4.438;2022-10-16T19:29:34;17.30;99.90
26081;DHT22;13991;51.174;4.438;2022-10-16T19:32:00;17.20;99.90
26081;DHT22;13991;51.174;4.438;2022-10-16T19:34:29;17.30;99.90
26081;DHT22;13991;51.174;4.438;2022-10-16T19:36:55;17.40;99.90
26081;DHT22;13991;51.174;4.438;2022-10-16T19:39:20;17.40;99.90
26081;DHT22;13991;51.174;4.438;2022-10-16T19:41:48;17.30;99.90
26081;DHT22;13991;51.174;4.438;2022-10-16T19:44:15;17.40;99.90
26081;DHT22;13991;51.174;4.438;2022-10-16T19:46:42;17.40;99.90
26081;DHT22;13991;51.174;4.438;2022-10-16T19:49:10;17.30;99.90
26081;DHT22;13991;51.174;4.438;2022-10-16T19:51:38;17.30;99.90
26081;DHT22;13991;51.174;4.438;2022-10-16T19:54:07;17.20;99.90
26081;DHT22;13991;51.174;4.438;2022-10-16T19:56:35;17.20;99.90
26081;DHT22;13991;51.174;4.438;2022-10-16T19:59:04;17.20;99.90
26081;DHT22;13991;51.174;4.438;2022-10-16T20:01:30;17.30;99.90
26081;DHT22;13991;51.174;4.438;2022-10-16T20:03:57;17.30;99.90
26081;DHT22;13991;51.174;4.438;2022-10-16T20:06:23;17.20;99.90
26081;DHT22;13991;51.174;4.438;2022-10-16T20:08:51;17.20;99.90
26081;DHT22;13991;51.174;4.438;2022-10-16T20:11:20;17.10;99.90
26081;DHT22;13991;51.174;4.438;2022-10-16T20:13:45;17.00;99.90
26081;DHT22;13991;51.174;4.438;2022-10-16T20:16:12;17.00;99.90
26081;DHT22;13991;51.174;4.438;2022-10-16T20:18:39;17.00;99.90
26081;DHT22;13991;51.174;4.438;2022-10-16T20:21:10;17.00;99.90
26081;DHT22;13991;51.174;4.438;2022-10-16T20:23:35;17.00;99.90
26081;DHT22;13991;51.174;4.438;2022-10-16T20:26:01;17.00;99.90
26081;DHT22;13991;51.174;4.438;2022-10-16T20:28:27;17.10;99.90
26081;DHT22;13991;51.174;4.438;2022-10-16T20:30:53;17.00;99.90
26081;DHT22;13991;51.174;4.438;2022-10-16T20:33:18;17.00;99.90
26081;DHT22;13991;51.174;4.438;2022-10-16T20:35:46;17.00;99.90
26081;DHT22;13991;51.174;4.438;2022-10-16T20:38:13;16.90;99.90
26081;DHT22;13991;51.174;4.438;2022-10-16T20:40:41;16.90;99.90
26081;DHT22;13991;51.174;4.438;2022-10-16T20:43:11;17.00;99.90
26081;DHT22;13991;51.174;4.438;2022-10-16T20:45:37;17.00;99.90
26081;DHT22;13991;51.174;4.438;2022-10-16T20:48:03;17.10;99.90
26081;DHT22;13991;51.174;4.438;2022-10-16T20:50:29;17.10;99.90
26081;DHT22;13991;51.174;4.438;2022-10-16T20:52:55;17.10;99.90
26081;DHT22;13991;51.174;4.438;2022-10-16T20:55:21;17.00;99.90
26081;DHT22;13991;51.174;4.438;2022-10-16T20:57:47;17.00;99.90
26081;DHT22;13991;51.174;4.438;2022-10-16T21:00:12;17.00;99.90
26081;DHT22;13991;51.174;4.438;2022-10-16T21:02:38;17.00;99.90
26081;DHT22;13991;51.174;4.438;2022-10-16T21:05:04;17.00;99.90
26081;DHT22;13991;51.174;4.438;2022-10-16T21:07:30;17.00;99.90
26081;DHT22;13991;51.174;4.438;2022-10-16T21:09:56;17.00;99.90
26081;DHT22;13991;51.174;4.438;2022-10-16T21:12:23;17.00;99.90
26081;DHT22;13991;51.174;4.438;2022-10-16T21:14:49;16.90;99.90
26081;DHT22;13991;51.174;4.438;2022-10-16T21:17:16;16.90;99.90
26081;DHT22;13991;51.174;4.438;2022-10-16T21:19:42;17.00;99.90
26081;DHT22;13991;51.174;4.438;2022-10-16T21:22:07;17.00;99.90
26081;DHT22;13991;51.174;4.438;2022-10-16T21:24:34;17.00;99.90
26081;DHT22;13991;51.174;4.438;2022-10-16T21:27:00;17.00;99.90
26081;DHT22;13991;51.174;4.438;2022-10-16T21:29:26;17.00;99.90
26081;DHT22;13991;51.174;4.438;2022-10-16T21:31:52;17.00;99.90
26081;DHT22;13991;51.174;4.438;2022-10-16T21:34:18;17.00;99.90
26081;DHT22;13991;51.174;4.438;2022-10-16T21:36:43;17.00;99.90
26081;DHT22;13991;51.174;4.438;2022-10-16T21:39:11;16.90;99.90
26081;DHT22;13991;51.174;4.438;2022-10-16T21:41:39;16.90;99.90
26081;DHT22;13991;51.174;4.438;2022-10-16T21:44:06;16.90;99.90
26081;DHT22;13991;51.174;4.438;2022-10-16T21:46:33;16.90;99.90
26081;DHT22;13991;51.174;4.438;2022-10-16T21:49:02;16.90;99.90
26081;DHT22;13991;51.174;4.438;2022-10-16T21:51:39;16.90;99.90
26081;DHT22;13991;51.174;4.438;2022-10-16T21:54:08;17.00;99.90
26081;DHT22;13991;51.174;4.438;2022-10-16T21:56:34;16.90;99.90
26081;DHT22;13991;51.174;4.438;2022-10-16T21:59:00;17.00;99.90
26081;DHT22;13991;51.174;4.438;2022-10-16T22:01:27;17.00;99.90
26081;DHT22;13991;51.174;4.438;2022-10-16T22:03:53;17.10;99.90
26081;DHT22;13991;51.174;4.438;2022-10-16T22:06:21;17.10;99.90
26081;DHT22;13991;51.174;4.438;2022-10-16T22:08:48;17.10;99.90
26081;DHT22;13991;51.174;4.438;2022-10-16T22:11:17;17.10;99.90
26081;DHT22;13991;51.174;4.438;2022-10-16T22:13:44;17.10;99.90
26081;DHT22;13991;51.174;4.438;2022-10-16T22:16:10;17.00;99.90
26081;DHT22;13991;51.174;4.438;2022-10-16T22:18:37;17.00;99.90
26081;DHT22;13991;51.174;4.438;2022-10-16T22:21:07;17.00;99.90
26081;DHT22;13991;51.174;4.438;2022-10-16T22:23:33;17.00;99.90
26081;DHT22;13991;51.174;4.438;2022-10-16T22:26:01;17.00;99.90
26081;DHT22;13991;51.174;4.438;2022-10-16T22:28:27;17.00;99.90
26081;DHT22;13991;51.174;4.438;2022-10-16T22:30:53;16.90;99.90
26081;DHT22;13991;51.174;4.438;2022-10-16T22:33:18;16.90;99.90
26081;DHT22;13991;51.174;4.438;2022-10-16T22:35:45;16.90;99.90
26081;DHT22;13991;51.174;4.438;2022-10-16T22:38:11;16.90;99.90
26081;DHT22;13991;51.174;4.438;2022-10-16T22:40:37;17.00;99.90
26081;DHT22;13991;51.174;4.438;2022-10-16T22:43:04;17.00;99.90
26081;DHT22;13991;51.174;4.438;2022-10-16T22:45:31;16.90;99.90
26081;DHT22;13991;51.174;4.438;2022-10-16T22:47:57;17.00;99.90
26081;DHT22;13991;51.174;4.438;2022-10-16T22:50:23;16.90;99.90
26081;DHT22;13991;51.174;4.438;2022-10-16T22:52:49;16.90;99.90
26081;DHT22;13991;51.174;4.438;2022-10-16T22:55:15;16.90;99.90
26081;DHT22;13991;51.174;4.438;2022-10-16T22:57:41;16.90;99.90
26081;DHT22;13991;51.174;4.438;2022-10-16T23:00:09;16.90;99.90
26081;DHT22;13991;51.174;4.438;2022-10-16T23:02:37;16.90;99.90
26081;DHT22;13991;51.174;4.438;2022-10-16T23:05:05;17.00;99.90
26081;DHT22;13991;51.174;4.438;2022-10-16T23:07:31;16.90;99.90
26081;DHT22;13991;51.174;4.438;2022-10-16T23:09:56;16.80;99.90
26081;DHT22;13991;51.174;4.438;2022-10-16T23:12:22;16.90;99.90
26081;DHT22;13991;51.174;4.438;2022-10-16T23:14:51;16.80;99.90
26081;DHT22;13991;51.174;4.438;2022-10-16T23:17:17;16.80;99.90
26081;DHT22;13991;51.174;4.438;2022-10-16T23:19:43;16.80;99.90
26081;DHT22;13991;51.174;4.438;2022-10-16T23:22:08;16.80;99.90
26081;DHT22;13991;51.174;4.438;2022-10-16T23:24:34;16.90;99.90
26081;DHT22;13991;51.174;4.438;2022-10-16T23:27:00;16.90;99.90
26081;DHT22;13991;51.174;4.438;2022-10-16T23:29:25;16.80;99.90
26081;DHT22;13991;51.174;4.438;2022-10-16T23:31:53;16.80;99.90
26081;DHT22;13991;51.174;4.438;2022-10-16T23:34:19;16.80;99.90
26081;DHT22;13991;51.174;4.438;2022-10-16T23:36:45;16.80;99.90
26081;DHT22;13991;51.174;4.438;2022-10-16T23:39:10;16.80;99.90
26081;DHT22;13991;51.174;4.438;2022-10-16T23:41:36;16.80;99.90
26081;DHT22;13991;51.174;4.438;2022-10-16T23:44:02;16.90;99.90
26081;DHT22;13991;51.174;4.438;2022-10-16T23:46:27;16.80;99.90
26081;DHT22;13991;51.174;4.438;2022-10-16T23:48:53;16.80;99.90
26081;DHT22;13991;51.174;4.438;2022-10-16T23:51:19;16.80;99.90
26081;DHT22;13991;51.174;4.438;2022-10-16T23:53:45;16.70;99.90
26081;DHT22;13991;51.174;4.438;2022-10-16T23:56:10;16.70;99.90
26081;DHT22;13991;51.174;4.438;2022-10-16T23:58:36;16.70;99.90
